createdAt,value
2022-08-17T00:02:26.768Z,99.90
2022-08-17T00:06:32.133Z,99.90
2022-08-17T00:10:35.963Z,99.90
2022-08-17T00:14:40.060Z,99.90
2022-08-17T00:18:57.648Z,99.90
2022-08-17T00:23:11.638Z,99.90
2022-08-17T00:27:15.083Z,99.90
2022-08-17T00:31:18.370Z,99.90
2022-08-17T00:35:24.701Z,99.90
2022-08-17T00:39:27.981Z,99.90
2022-08-17T00:43:35.261Z,99.90
2022-08-17T00:47:38.563Z,99.90
2022-08-17T00:51:47.532Z,99.90
2022-08-17T00:55:50.825Z,99.90
2022-08-17T01:00:02.271Z,99.90
2022-08-17T01:04:07.190Z,99.90
2022-08-17T01:08:15.378Z,99.90
2022-08-17T01:12:18.892Z,99.90
2022-08-17T01:16:25.211Z,99.90
2022-08-17T01:20:29.672Z,99.90
2022-08-17T01:24:34.901Z,99.90
2022-08-17T01:28:54.491Z,99.90
2022-08-17T01:32:59.177Z,99.90
2022-08-17T01:37:03.400Z,99.90
2022-08-17T01:41:12.611Z,99.90
2022-08-17T01:45:19.169Z,99.90
2022-08-17T01:49:22.582Z,99.90
2022-08-17T01:53:31.065Z,99.90
2022-08-17T01:57:36.161Z,99.90
2022-08-17T02:01:39.913Z,99.90
2022-08-17T02:05:43.664Z,99.90
2022-08-17T02:09:52.603Z,99.90
2022-08-17T02:14:01.037Z,99.90
2022-08-17T02:18:08.552Z,99.90
2022-08-17T02:22:12.022Z,99.90
2022-08-17T02:26:25.745Z,99.90
2022-08-17T02:31:02.201Z,99.90
2022-08-17T02:34:55.236Z,99.90
2022-08-17T02:38:58.738Z,99.90
2022-08-17T02:43:02.066Z,99.90
2022-08-17T02:47:08.803Z,99.90
2022-08-17T02:51:12.174Z,99.90
2022-08-17T02:55:18.369Z,99.90
2022-08-17T02:59:21.626Z,99.90
2022-08-17T03:03:27.782Z,99.90
2022-08-17T03:07:31.870Z,99.90
2022-08-17T03:11:35.653Z,99.90
2022-08-17T03:15:41.512Z,99.90
2022-08-17T03:19:49.102Z,99.90
2022-08-17T03:23:54.405Z,99.90
2022-08-17T03:27:58.796Z,99.90
2022-08-17T03:32:12.765Z,99.90
2022-08-17T03:36:17.608Z,99.90
2022-08-17T03:40:39.885Z,99.90
2022-08-17T03:44:50.066Z,99.90
2022-08-17T03:49:11.025Z,99.90
2022-08-17T03:53:36.209Z,99.90
2022-08-17T03:57:40.069Z,99.90
2022-08-17T04:01:44.627Z,99.90
2022-08-17T04:05:48.922Z,99.90
2022-08-17T04:09:53.836Z,99.90
2022-08-17T04:13:57.415Z,99.90
2022-08-17T04:18:00.997Z,99.90
2022-08-17T04:22:05.810Z,99.90
2022-08-17T04:26:10.605Z,99.90
2022-08-17T04:30:36.118Z,99.90
2022-08-17T04:34:39.838Z,99.90
2022-08-17T04:38:45.702Z,99.90
2022-08-17T04:43:04.130Z,99.90
2022-08-17T04:47:07.489Z,99.90
2022-08-17T04:51:17.754Z,99.90
2022-08-17T04:55:21.022Z,99.90
2022-08-17T04:59:25.878Z,99.90
2022-08-17T05:03:30.001Z,99.90
2022-08-17T05:07:33.222Z,99.90
2022-08-17T05:11:37.776Z,99.90
2022-08-17T05:15:45.115Z,99.90
2022-08-17T05:19:51.877Z,99.90
2022-08-17T05:23:58.483Z,99.90
2022-08-17T05:28:03.014Z,99.90
2022-08-17T05:32:38.089Z,99.90
2022-08-17T05:36:42.114Z,99.90
2022-08-17T05:40:48.274Z,99.90
2022-08-17T05:44:51.463Z,99.90
2022-08-17T05:49:00.370Z,99.90
2022-08-17T05:53:10.987Z,99.90
2022-08-17T05:57:27.765Z,99.90
2022-08-17T06:01:39.833Z,99.90
2022-08-17T06:05:59.083Z,99.90
2022-08-17T06:10:09.246Z,99.90
2022-08-17T06:14:27.844Z,99.90
2022-08-17T06:18:45.566Z,99.90
2022-08-17T06:22:56.662Z,99.90
2022-08-17T06:27:08.384Z,99.90
2022-08-17T06:31:20.093Z,99.90
2022-08-17T06:35:32.003Z,99.90
2022-08-17T06:39:47.631Z,99.90
2022-08-17T06:44:02.057Z,99.90
2022-08-17T06:48:13.954Z,99.90
2022-08-17T06:52:45.423Z,99.90
2022-08-17T06:56:55.199Z,99.90
2022-08-17T07:01:05.085Z,99.90
2022-08-17T07:05:10.134Z,99.90
2022-08-17T07:09:19.897Z,99.90
2022-08-17T07:13:38.776Z,99.90
2022-08-17T07:17:47.247Z,99.90
2022-08-17T07:22:01.598Z,99.90
2022-08-17T07:26:06.828Z,99.90
2022-08-17T07:30:17.594Z,99.90
2022-08-17T07:34:20.827Z,99.40
2022-08-17T07:38:28.402Z,99.10
2022-08-17T07:42:31.753Z,97.50
2022-08-17T07:47:05.385Z,96.50
2022-08-17T07:51:21.939Z,96.40
2022-08-17T07:55:31.509Z,94.80
2022-08-17T07:59:36.763Z,94.80
2022-08-17T08:03:44.877Z,93.70
2022-08-17T08:07:58.072Z,93.20
2022-08-17T08:12:02.071Z,93.00
2022-08-17T08:16:30.362Z,92.60
2022-08-17T08:20:53.525Z,91.10
2022-08-17T08:25:09.272Z,91.10
2022-08-17T08:29:23.448Z,87.80
2022-08-17T08:33:45.874Z,88.30
2022-08-17T08:38:00.763Z,86.70
2022-08-17T08:42:14.358Z,82.90
2022-08-17T08:46:29.214Z,78.40
2022-08-17T08:50:42.803Z,74.70
2022-08-17T08:54:51.363Z,73.40
2022-08-17T08:59:02.111Z,68.40
2022-08-17T09:03:52.353Z,67.90
2022-08-17T09:08:05.538Z,66.30
2022-08-17T09:12:17.996Z,63.20
2022-08-17T09:16:29.916Z,61.80
2022-08-17T09:20:40.678Z,60.10
2022-08-17T09:24:48.522Z,59.30
2022-08-17T09:29:01.540Z,59.70
2022-08-17T09:33:09.498Z,59.30
2022-08-17T09:37:21.760Z,56.90
2022-08-17T09:41:33.713Z,55.90
2022-08-17T09:45:42.874Z,56.80
2022-08-17T09:49:50.781Z,55.70
2022-08-17T09:53:54.363Z,56.20
2022-08-17T09:58:07.614Z,54.50
2022-08-17T10:02:33.046Z,54.00
2022-08-17T10:06:47.721Z,54.50
2022-08-17T10:11:02.370Z,52.00
2022-08-17T10:15:14.879Z,54.20
2022-08-17T10:19:28.045Z,52.20
2022-08-17T10:23:49.724Z,52.00
2022-08-17T10:27:59.220Z,50.30
2022-08-17T10:32:10.454Z,49.90
2022-08-17T10:36:21.850Z,49.90
2022-08-17T10:40:36.094Z,47.50
2022-08-17T10:44:48.255Z,47.20
2022-08-17T10:49:15.306Z,46.90
2022-08-17T10:53:58.639Z,46.80
2022-08-17T10:58:21.149Z,47.20
2022-08-17T11:02:31.561Z,42.70
2022-08-17T11:06:48.637Z,44.20
2022-08-17T11:11:10.885Z,42.00
2022-08-17T11:15:24.806Z,42.50
2022-08-17T11:20:13.753Z,42.10
2022-08-17T11:24:21.191Z,44.70
2022-08-17T11:28:34.423Z,43.10
2022-08-17T11:32:47.079Z,43.40
2022-08-17T11:37:36.208Z,41.30
2022-08-17T11:41:48.965Z,41.90
2022-08-17T11:46:15.690Z,41.80
2022-08-17T11:50:56.317Z,41.80
2022-08-17T11:55:12.402Z,41.00
2022-08-17T11:59:58.417Z,42.00
2022-08-17T12:04:20.936Z,42.40
2022-08-17T12:08:25.047Z,41.10
2022-08-17T12:12:33.496Z,40.20
2022-08-17T12:16:37.704Z,40.30
2022-08-17T12:20:45.148Z,37.50
2022-08-17T12:24:56.712Z,37.50
2022-08-17T12:29:03.043Z,37.10
2022-08-17T12:33:28.198Z,37.90
2022-08-17T12:37:37.018Z,38.10
2022-08-17T12:41:43.385Z,37.60
2022-08-17T12:45:56.966Z,37.40
2022-08-17T12:50:29.738Z,37.30
2022-08-17T12:54:47.981Z,38.10
2022-08-17T12:58:55.652Z,37.50
2022-08-17T13:03:02.796Z,35.50
2022-08-17T13:07:06.065Z,36.10
2022-08-17T13:11:19.502Z,34.80
2022-08-17T13:15:28.354Z,34.80
2022-08-17T13:19:40.932Z,35.30
2022-08-17T13:23:57.091Z,35.80
2022-08-17T13:28:01.813Z,34.80
2022-08-17T13:32:19.786Z,36.50
2022-08-17T13:36:33.782Z,34.50
2022-08-17T13:40:52.005Z,35.50
2022-08-17T13:44:56.803Z,34.60
2022-08-17T13:49:05.029Z,37.00
2022-08-17T13:53:21.085Z,35.20
2022-08-17T13:57:25.812Z,35.00
2022-08-17T14:01:33.364Z,34.40
2022-08-17T14:05:38.103Z,33.20
2022-08-17T14:09:45.991Z,35.20
2022-08-17T14:13:49.299Z,33.70
2022-08-17T14:17:54.332Z,33.10
2022-08-17T14:22:00.619Z,32.80
2022-08-17T14:26:04.448Z,34.20
2022-08-17T14:30:08.968Z,35.00
2022-08-17T14:34:13.794Z,34.90
2022-08-17T14:38:18.988Z,33.60
2022-08-17T14:42:24.864Z,32.50
2022-08-17T14:46:28.570Z,32.10
2022-08-17T14:50:36.315Z,30.40
2022-08-17T14:54:45.193Z,30.80
2022-08-17T14:58:49.288Z,32.50
2022-08-17T15:02:55.192Z,34.30
2022-08-17T15:07:24.287Z,33.30
2022-08-17T15:11:34.727Z,35.30
2022-08-17T15:15:38.200Z,33.90
2022-08-17T15:19:41.842Z,32.80
2022-08-17T15:23:47.931Z,32.00
2022-08-17T15:27:51.814Z,35.30
2022-08-17T15:32:00.481Z,38.40
2022-08-17T15:36:07.782Z,43.40
2022-08-17T15:40:14.356Z,45.30
2022-08-17T15:44:17.767Z,50.50
2022-08-17T15:48:22.789Z,52.60
2022-08-17T15:52:29.787Z,54.20
2022-08-17T15:56:34.575Z,53.80
2022-08-17T16:00:56.796Z,59.20
2022-08-17T16:05:06.437Z,59.10
2022-08-17T16:09:14.829Z,60.30
2022-08-17T16:13:24.110Z,59.20
2022-08-17T16:17:39.681Z,58.20
2022-08-17T16:21:44.518Z,58.60
2022-08-17T16:25:53.858Z,59.30
2022-08-17T16:30:03.044Z,60.50
2022-08-17T16:34:17.372Z,61.60
2022-08-17T16:38:23.163Z,61.90
2022-08-17T16:42:30.584Z,63.70
2022-08-17T16:46:37.403Z,63.50
2022-08-17T16:50:41.901Z,65.70
2022-08-17T16:55:08.039Z,68.60
2022-08-17T16:59:29.925Z,71.00
2022-08-17T17:03:41.856Z,73.10
2022-08-17T17:07:56.667Z,73.60
2022-08-17T17:12:04.568Z,75.90
2022-08-17T17:16:18.405Z,75.80
2022-08-17T17:20:31.529Z,78.60
2022-08-17T17:29:14.287Z,80.90
2022-08-17T17:33:22.583Z,83.10
2022-08-17T17:37:34.710Z,83.30
2022-08-17T17:41:54.961Z,84.00
2022-08-17T17:46:26.784Z,84.50
2022-08-17T17:50:49.999Z,85.50
2022-08-17T17:55:10.489Z,86.70
2022-08-17T17:59:24.122Z,87.70
2022-08-17T18:03:45.250Z,88.50
2022-08-17T18:07:55.420Z,90.00
2022-08-17T18:12:21.082Z,90.40
2022-08-17T18:16:24.994Z,90.90
2022-08-17T18:20:36.074Z,91.10
2022-08-17T18:24:56.524Z,91.50
2022-08-17T18:29:02.930Z,92.00
2022-08-17T18:33:29.238Z,92.10
2022-08-17T18:37:40.715Z,92.20
2022-08-17T18:41:45.296Z,92.80
2022-08-17T18:45:54.763Z,92.70
2022-08-17T18:50:19.706Z,93.30
2022-08-17T18:54:25.238Z,93.30
2022-08-17T18:58:28.893Z,94.10
2022-08-17T19:02:45.280Z,94.20
2022-08-17T19:07:13.653Z,94.60
2022-08-17T19:11:23.328Z,94.80
2022-08-17T19:15:33.781Z,95.60
2022-08-17T19:19:45.835Z,96.30
2022-08-17T19:23:54.633Z,96.60
2022-08-17T19:28:03.645Z,96.30
2022-08-17T19:32:10.191Z,96.90
2022-08-17T19:36:34.869Z,97.00
2022-08-17T19:40:53.823Z,97.00
2022-08-17T19:45:06.667Z,97.00
2022-08-17T19:49:18.874Z,97.60
2022-08-17T19:54:01.761Z,97.80
2022-08-17T19:58:09.594Z,98.20
2022-08-17T20:02:34.702Z,98.30
2022-08-17T20:06:41.306Z,98.60
2022-08-17T20:10:54.967Z,98.30
2022-08-17T20:15:07.074Z,98.30
2022-08-17T20:19:26.175Z,98.30
2022-08-17T20:23:46.030Z,98.80
2022-08-17T20:27:54.807Z,98.70
2022-08-17T20:32:19.945Z,99.40
2022-08-17T20:36:25.886Z,99.90
2022-08-17T20:40:36.380Z,99.60
2022-08-17T20:44:44.381Z,99.90
2022-08-17T20:48:54.424Z,99.70
2022-08-17T20:52:59.499Z,99.70
2022-08-17T20:57:13.669Z,99.60
2022-08-17T21:01:35.684Z,99.90
2022-08-17T21:06:00.356Z,99.90
2022-08-17T21:10:13.994Z,99.90
2022-08-17T21:14:27.371Z,99.90
2022-08-17T21:18:47.297Z,99.90
2022-08-17T21:23:02.814Z,99.90
2022-08-17T21:27:28.147Z,99.90
2022-08-17T21:31:35.969Z,99.90
2022-08-17T21:35:51.512Z,99.90
2022-08-17T21:39:58.807Z,99.90
2022-08-17T21:44:13.368Z,99.90
2022-08-17T21:48:20.635Z,99.90
2022-08-17T21:52:28.966Z,99.90
2022-08-17T21:56:35.582Z,99.90
2022-08-17T22:00:38.995Z,99.90
2022-08-17T22:04:43.723Z,99.90
2022-08-17T22:09:05.813Z,99.90
2022-08-17T22:13:30.408Z,99.90
2022-08-17T22:17:36.066Z,99.90
2022-08-17T22:21:41.447Z,99.90
2022-08-17T22:26:02.279Z,99.90
2022-08-17T22:30:26.222Z,99.90
2022-08-17T22:34:29.460Z,99.90
2022-08-17T22:38:38.094Z,99.90
2022-08-17T22:42:49.242Z,99.90
2022-08-17T22:46:57.125Z,99.90
2022-08-17T22:51:12.835Z,99.90
2022-08-17T22:55:36.105Z,99.90
2022-08-17T22:59:52.673Z,99.90
2022-08-17T23:03:58.214Z,99.90
2022-08-17T23:08:01.569Z,99.90
2022-08-17T23:12:09.689Z,99.90
2022-08-17T23:16:15.003Z,99.90
2022-08-17T23:20:18.865Z,99.90
2022-08-17T23:24:40.832Z,99.90
2022-08-17T23:28:44.953Z,99.90
2022-08-17T23:32:53.551Z,99.90
2022-08-17T23:36:57.757Z,99.90
2022-08-17T23:41:04.474Z,99.90
2022-08-17T23:45:10.834Z,99.90
2022-08-17T23:49:15.386Z,99.90
2022-08-17T23:53:19.712Z,99.90
2022-08-17T23:57:35.103Z,99.90
